Time;durP1;ratioP1;P1;durP2;ratioP2;P2;SDS_P1;SDS_P2;PMS_P1;PMS_P2;Temp;Humidity;BMP_temperature;BMP_pressure;BME280_temperature;BME280_humidity;BME280_pressure;Samples;Min_cycle;Max_cycle;Signal;HPM_P1;HPM_P2
2022/04/20 00:00:30;;;;;;;16.42;2.67;;;;;;;11.30;49.62;101440.09;5197122;28;20046;-67
2022/04/20 00:03:05;;;;;;;3.03;2.20;;;;;;;11.33;48.92;101437.22;5199853;28;20025;-66
2022/04/20 00:05:36;;;;;;;3.88;2.25;;;;;;;11.23;49.65;101431.03;5197692;28;20041;-66
2022/04/20 00:08:07;;;;;;;5.03;2.50;;;;;;;11.20;49.30;101434.72;5199470;28;20030;-67
2022/04/20 00:10:42;;;;;;;5.05;2.88;;;;;;;11.21;49.63;101435.53;5197903;28;20099;-67
2022/04/20 00:13:13;;;;;;;4.55;2.60;;;;;;;11.16;49.64;101443.78;5198244;28;20049;-66
2022/04/20 00:15:44;;;;;;;6.03;2.70;;;;;;;11.08;50.68;101438.28;5197804;28;20523;-67
2022/04/20 00:18:15;;;;;;;5.43;2.55;;;;;;;11.09;50.35;101436.50;5199088;28;20026;-66
2022/04/20 00:20:47;;;;;;;3.22;2.30;;;;;;;11.09;50.00;101433.88;5201893;28;20026;-67
2022/04/20 00:23:18;;;;;;;4.43;3.13;;;;;;;11.06;49.67;101447.22;5236516;28;20042;-67
2022/04/20 00:25:50;;;;;;;4.47;2.60;;;;;;;10.99;49.93;101446.06;5239697;28;20056;-67
2022/04/20 00:28:21;;;;;;;5.22;2.40;;;;;;;11.00;50.64;101443.31;5237471;28;20029;-66
2022/04/20 00:30:52;;;;;;;4.85;2.50;;;;;;;10.89;51.52;101440.66;5239346;28;20029;-66
2022/04/20 00:33:23;;;;;;;3.58;2.30;;;;;;;10.90;51.36;101442.31;5236143;28;20036;-68
2022/04/20 00:35:55;;;;;;;4.03;2.25;;;;;;;10.89;51.32;101440.66;5237233;28;20029;-68
2022/04/20 00:38:26;;;;;;;4.82;2.45;;;;;;;10.79;51.46;101450.19;5238236;28;20122;-68
2022/04/20 00:40:57;;;;;;;3.88;2.60;;;;;;;10.74;50.86;101442.66;5240748;28;20024;-67
2022/04/20 00:43:29;;;;;;;3.72;2.83;;;;;;;10.71;51.33;101448.13;5236415;28;20036;-67
2022/04/20 00:46:00;;;;;;;4.82;2.65;;;;;;;10.71;52.32;101448.13;5236430;28;20021;-67
2022/04/20 00:48:32;;;;;;;10.18;3.10;;;;;;;10.63;52.61;101447.88;5236046;28;20073;-67
2022/04/20 00:51:04;;;;;;;4.28;2.60;;;;;;;10.54;52.24;101454.66;5236733;28;20289;-68
2022/04/20 00:53:35;;;;;;;5.18;2.38;;;;;;;10.54;52.05;101451.22;5236869;28;20091;-66
2022/04/20 00:56:06;;;;;;;4.55;2.63;;;;;;;10.54;52.95;101456.44;5239462;28;21001;-67
2022/04/20 00:58:40;;;;;;;6.00;2.92;;;;;;;10.48;53.45;101450.69;5240410;28;20060;-67
2022/04/20 01:01:12;;;;;;;5.28;2.70;;;;;;;10.46;53.16;101450.00;5234010;28;20045;-67
2022/04/20 01:03:43;;;;;;;3.70;2.80;;;;;;;10.42;53.54;101456.41;5233858;28;20048;-69
2022/04/20 01:06:15;;;;;;;6.22;2.72;;;;;;;10.40;53.51;101450.44;5236961;28;20411;-66
2022/04/20 01:08:46;;;;;;;5.10;2.90;;;;;;;10.36;53.90;101450.78;5242408;28;20053;-68
2022/04/20 01:11:17;;;;;;;5.70;2.72;;;;;;;10.24;53.66;101450.72;5236863;28;20187;-67
2022/04/20 01:13:48;;;;;;;4.43;2.80;;;;;;;10.24;54.45;101450.72;5233569;28;20037;-67
2022/04/20 01:16:20;;;;;;;4.30;3.25;;;;;;;10.24;54.46;101455.13;5237899;28;20025;-66
2022/04/20 01:18:53;;;;;;;3.85;2.55;;;;;;;10.15;54.07;101458.41;5235891;28;20079;-68
2022/04/20 01:21:25;;;;;;;4.88;3.00;;;;;;;10.06;54.42;101449.44;5236633;28;20036;-66
2022/04/20 01:23:57;;;;;;;4.00;2.70;;;;;;;10.05;54.42;101450.41;5237254;28;20030;-69
2022/04/20 01:26:28;;;;;;;5.82;2.95;;;;;;;9.94;55.01;101451.16;5240302;28;20025;-66
2022/04/20 01:29:01;;;;;;;3.97;2.58;;;;;;;10.01;54.56;101453.34;5238786;28;20628;-67
2022/04/20 01:31:32;;;;;;;4.22;2.80;;;;;;;9.95;54.99;101455.44;5235218;28;20386;-68
2022/04/20 01:34:03;;;;;;;5.63;2.90;;;;;;;9.84;55.38;101463.25;5233217;28;20304;-67
2022/04/20 01:36:35;;;;;;;4.43;3.00;;;;;;;9.82;55.65;101462.53;5237437;28;20136;-67
2022/04/20 01:39:06;;;;;;;5.35;2.58;;;;;;;9.80;55.73;101464.41;5236654;28;20446;-67
2022/04/20 01:41:37;;;;;;;5.28;3.05;;;;;;;9.78;56.13;101461.06;5239853;28;20052;-67
2022/04/20 01:44:09;;;;;;;4.78;3.17;;;;;;;9.76;56.02;101462.97;5236890;28;20021;-68
2022/04/20 01:46:40;;;;;;;5.63;3.13;;;;;;;9.75;56.23;101456.88;5235709;28;20433;-68
2022/04/20 01:49:12;;;;;;;6.05;3.22;;;;;;;9.65;56.03;101457.66;5238621;28;20193;-67
2022/04/20 01:51:52;;;;;;;6.85;3.28;;;;;;;9.62;56.47;101452.63;5235336;28;20471;-67
2022/04/20 01:54:23;;;;;;;4.28;3.17;;;;;;;9.62;57.32;101457.84;5237756;28;20033;-66
2022/04/20 01:56:55;;;;;;;4.85;3.08;;;;;;;9.52;56.89;101454.25;5238109;28;20029;-66
2022/04/20 01:59:26;;;;;;;5.18;3.13;;;;;;;9.46;56.84;101461.56;5234544;28;20290;-67
2022/04/20 02:04:48;;;;;;;6.80;3.38;;;;;;;9.45;57.26;101459.06;5236952;28;20365;-67
2022/04/20 02:07:19;;;;;;;5.60;3.10;;;;;;;9.39;56.78;101457.69;5234242;28;20025;-68
2022/04/20 02:09:50;;;;;;;5.43;3.85;;;;;;;9.35;56.75;101453.63;5234756;28;20111;-66
2022/04/20 02:12:21;;;;;;;8.57;3.28;;;;;;;9.34;57.02;101459.81;5236230;28;20024;-67
2022/04/20 02:14:53;;;;;;;5.22;3.25;;;;;;;9.23;57.88;101459.72;5232979;28;20098;-67
2022/04/20 02:17:25;;;;;;;5.97;3.92;;;;;;;9.25;57.56;101460.47;5239907;28;20464;-67
2022/04/20 02:19:58;;;;;;;4.03;2.92;;;;;;;9.21;58.44;101454.63;5238325;28;20104;-67
2022/04/20 02:22:29;;;;;;;4.97;3.17;;;;;;;9.13;58.03;101448.22;5236079;28;20533;-67
2022/04/20 02:25:01;;;;;;;5.22;3.17;;;;;;;9.06;58.52;101445.22;5237499;28;20028;-68
2022/04/20 02:27:32;;;;;;;4.63;3.28;;;;;;;9.07;57.98;101451.28;5239426;28;20253;-68
2022/04/20 02:30:05;;;;;;;5.15;3.20;;;;;;;9.06;57.99;101449.59;5237259;28;20040;-66
2022/04/20 02:32:36;;;;;;;6.30;3.00;;;;;;;9.02;57.77;101452.44;5236859;28;20037;-66
2022/04/20 02:35:08;;;;;;;4.88;3.70;;;;;;;8.97;58.77;101448.44;5238353;28;20029;-68
2022/04/20 02:37:39;;;;;;;5.57;3.40;;;;;;;9.02;58.34;101454.22;5234926;28;20029;-67
2022/04/20 02:40:11;;;;;;;6.68;3.53;;;;;;;8.96;58.48;101446.78;5234914;28;20104;-66
2022/04/20 02:42:42;;;;;;;4.28;3.42;;;;;;;8.93;58.85;101447.81;5238340;28;20025;-67
2022/04/20 02:45:16;;;;;;;6.88;3.33;;;;;;;8.92;58.91;101450.53;5238223;28;20489;-68
2022/04/20 02:47:47;;;;;;;4.15;3.00;;;;;;;8.84;59.72;101458.91;5236200;28;20280;-67
2022/04/20 02:50:18;;;;;;;6.78;3.65;;;;;;;8.71;58.99;101453.69;5235100;28;20049;-67
2022/04/20 02:52:49;;;;;;;6.45;3.60;;;;;;;8.72;59.06;101454.50;5239946;28;20071;-67
2022/04/20 02:55:21;;;;;;;6.15;3.15;;;;;;;8.72;60.00;101462.34;5234330;28;20446;-67
2022/04/20 02:57:52;;;;;;;5.85;3.50;;;;;;;8.64;59.71;101460.25;5238047;28;20390;-67
2022/04/20 03:00:24;;;;;;;5.25;3.63;;;;;;;8.62;59.53;101463.88;5237933;28;20925;-67
2022/04/20 03:02:55;;;;;;;9.98;4.13;;;;;;;8.50;60.28;101461.16;5235158;28;20025;-67
2022/04/20 03:05:27;;;;;;;6.03;3.53;;;;;;;8.53;59.55;101465.34;5238237;28;20036;-67
2022/04/20 03:07:58;;;;;;;5.93;3.63;;;;;;;8.57;60.07;101463.38;5238695;28;20049;-66
2022/04/20 03:10:29;;;;;;;4.57;3.40;;;;;;;8.54;59.37;101464.41;5237293;28;20044;-67
2022/04/20 03:13:01;;;;;;;4.88;3.30;;;;;;;8.49;59.07;101464.72;5239161;28;20036;-69
2022/04/20 03:15:32;;;;;;;9.30;3.40;;;;;;;8.49;59.38;101467.31;5243340;28;20025;-67
2022/04/20 03:18:03;;;;;;;5.55;3.58;;;;;;;8.54;59.38;101461.78;5242191;28;20029;-68
2022/04/20 03:20:35;;;;;;;6.00;3.60;;;;;;;8.43;59.13;101464.28;5235830;28;20509;-67
2022/04/20 03:23:06;;;;;;;6.43;3.63;;;;;;;8.43;59.89;101461.66;5242004;28;20517;-66
2022/04/20 03:25:37;;;;;;;5.63;3.90;;;;;;;8.35;60.06;101462.13;5240331;28;20832;-67
2022/04/20 03:28:09;;;;;;;4.45;3.10;;;;;;;8.35;60.09;101477.81;5241554;28;20043;-68
2022/04/20 03:30:41;;;;;;;5.40;3.40;;;;;;;8.29;60.22;101479.03;5239844;28;20485;-66
2022/04/20 03:33:12;;;;;;;4.22;3.25;;;;;;;8.28;60.34;101471.31;5219852;28;20345;-66
2022/04/20 03:35:44;;;;;;;5.57;3.88;;;;;;;8.26;59.92;101481.03;5242417;28;20028;-68
2022/04/20 03:38:15;;;;;;;5.63;3.45;;;;;;;8.21;60.07;101465.63;5240346;28;20025;-67
2022/04/20 03:40:47;;;;;;;5.70;3.80;;;;;;;8.23;60.46;101486.44;5238189;28;20284;-67
2022/04/20 03:43:18;;;;;;;6.03;3.55;;;;;;;8.20;60.28;101478.78;5241202;28;20079;-67
2022/04/20 03:45:50;;;;;;;5.00;3.45;;;;;;;8.16;60.34;101482.53;5222910;28;20108;-66
2022/04/20 03:48:22;;;;;;;8.95;3.88;;;;;;;8.13;60.28;101490.56;5238597;28;20475;-67
2022/04/20 03:50:53;;;;;;;7.05;4.00;;;;;;;8.17;60.43;101485.03;5237981;28;20125;-67
2022/04/20 03:53:25;;;;;;;4.75;3.42;;;;;;;8.11;59.99;101490.66;5237782;28;20087;-67
2022/04/20 03:55:57;;;;;;;6.82;3.58;;;;;;;8.08;61.19;101484.81;5239991;28;20040;-67
2022/04/20 03:58:28;;;;;;;5.90;3.55;;;;;;;8.09;60.85;101491.69;5241115;28;20029;-66
2022/04/20 04:01:01;;;;;;;6.50;3.55;;;;;;;8.03;60.98;101495.53;5234250;28;20077;-67
2022/04/20 04:03:34;;;;;;;4.50;3.60;;;;;;;8.07;61.42;101493.56;5241661;28;20031;-67
2022/04/20 04:06:06;;;;;;;8.00;3.47;;;;;;;7.99;61.40;101491.44;5237867;28;20033;-67
2022/04/20 04:08:37;;;;;;;5.90;3.95;;;;;;;7.93;61.87;101490.06;5235179;28;20457;-68
2022/04/20 04:11:09;;;;;;;8.52;4.20;;;;;;;7.94;61.34;101496.13;5242107;28;20029;-66
2022/04/20 04:13:40;;;;;;;5.82;3.80;;;;;;;7.87;61.80;101493.03;5241094;28;20390;-67
2022/04/20 04:16:11;;;;;;;6.32;3.95;;;;;;;7.91;61.96;101497.13;5239246;28;20526;-67
2022/04/20 04:18:43;;;;;;;5.65;4.28;;;;;;;7.86;61.78;101504.44;5239549;28;20029;-66
2022/04/20 04:21:14;;;;;;;6.05;4.15;;;;;;;7.85;62.17;101504.53;5243060;28;20033;-68
2022/04/20 04:23:45;;;;;;;5.18;3.50;;;;;;;7.86;62.46;101499.22;5237416;28;20258;-66
2022/04/20 04:26:16;;;;;;;8.27;4.15;;;;;;;7.82;62.13;101505.56;5239154;28;20025;-68
2022/04/20 04:28:48;;;;;;;5.45;3.80;;;;;;;7.82;62.85;101504.72;5238793;28;20037;-67
2022/04/20 04:31:19;;;;;;;7.05;4.15;;;;;;;7.78;62.12;101514.50;5239262;28;20490;-67
2022/04/20 04:33:51;;;;;;;12.73;3.53;;;;;;;7.75;62.83;101522.53;5237907;28;20078;-66
2022/04/20 04:36:22;;;;;;;5.75;3.90;;;;;;;7.76;62.83;101525.03;5240190;28;20055;-67
2022/04/20 04:38:54;;;;;;;6.78;3.92;;;;;;;7.71;62.86;101519.25;5238471;28;20038;-67
2022/04/20 04:41:25;;;;;;;7.22;3.70;;;;;;;7.69;63.26;101526.34;5241267;28;20071;-67
2022/04/20 04:43:57;;;;;;;8.52;4.35;;;;;;;7.71;62.44;101524.47;5238009;28;20029;-67
2022/04/20 04:49:18;;;;;;;6.53;4.10;;;;;;;7.70;63.50;101530.63;5237495;28;20025;-67
2022/04/20 04:51:49;;;;;;;5.85;3.55;;;;;;;7.71;63.32;101534.06;5239654;28;20037;-67
2022/04/20 04:54:20;;;;;;;6.72;4.50;;;;;;;7.74;64.13;101537.34;5238815;28;20044;-66
2022/04/20 04:56:52;;;;;;;5.93;4.18;;;;;;;7.69;64.08;101538.53;5240772;28;20040;-67
2022/04/20 04:59:23;;;;;;;5.40;4.03;;;;;;;7.68;63.39;101548.13;5237789;28;20099;-67
2022/04/20 05:01:54;;;;;;;7.20;3.88;;;;;;;7.66;63.71;101542.19;5237557;28;20036;-67
2022/04/20 05:04:26;;;;;;;4.80;3.92;;;;;;;7.63;63.53;101542.38;5237839;28;20033;-66
2022/04/20 05:06:57;;;;;;;6.07;4.07;;;;;;;7.67;63.82;101543.03;5240105;28;20025;-68
2022/04/20 05:09:29;;;;;;;7.38;4.47;;;;;;;7.69;64.27;101543.75;5236249;28;20315;-68
2022/04/20 05:12:01;;;;;;;9.70;4.38;;;;;;;7.69;64.37;101541.13;5239375;28;20048;-66
2022/04/20 05:14:35;;;;;;;7.35;4.50;;;;;;;7.72;64.26;101540.97;5237071;28;20560;-66
2022/04/20 05:17:06;;;;;;;6.70;4.53;;;;;;;7.67;63.25;101537.81;5239013;28;20036;-67
2022/04/20 05:19:38;;;;;;;7.20;4.00;;;;;;;7.71;64.27;101534.91;5237412;28;20671;-67
2022/04/20 05:22:09;;;;;;;9.70;4.80;;;;;;;7.81;64.20;101535.19;5236939;28;20148;-66
2022/04/20 05:24:40;;;;;;;11.90;4.38;;;;;;;7.86;63.56;101538.34;5239133;28;20091;-66
2022/04/20 05:27:13;;;;;;;8.43;4.05;;;;;;;7.85;62.53;101536.66;5238220;28;20450;-67
2022/04/20 05:29:44;;;;;;;6.13;4.65;;;;;;;7.91;62.71;101545.88;5236064;28;20060;-67
2022/04/20 05:32:16;;;;;;;5.22;3.83;;;;;;;7.89;62.38;101538.16;5236047;28;20056;-66
2022/04/20 05:34:47;;;;;;;7.05;4.22;;;;;;;7.98;63.81;101542.78;5238562;28;20132;-66
2022/04/20 05:42:59;;;;;;;7.07;4.40;;;;;;;8.17;63.25;101552.06;5235730;28;20029;-67
2022/04/20 05:45:30;;;;;;;8.15;4.15;;;;;;;8.15;63.21;101561.78;5238023;28;20479;-67
2022/04/20 05:48:03;;;;;;;6.72;4.40;;;;;;;8.14;62.00;101558.31;5240234;28;20025;-66
2022/04/20 05:50:34;;;;;;;6.87;4.60;;;;;;;8.21;62.36;101558.78;5237493;28;20031;-68
2022/04/20 05:53:05;;;;;;;7.63;4.57;;;;;;;8.19;62.55;101564.09;5237100;28;20422;-67
2022/04/20 05:55:37;;;;;;;5.03;3.78;;;;;;;8.23;62.32;101562.13;5237302;28;20049;-67
2022/04/20 05:58:08;;;;;;;7.93;4.90;;;;;;;8.24;62.51;101564.63;5237156;28;20116;-66
2022/04/20 06:00:40;;;;;;;5.75;4.50;;;;;;;8.28;62.25;101557.44;5236470;28;20055;-67
2022/04/20 06:03:11;;;;;;;9.57;4.93;;;;;;;8.31;62.20;101559.88;5236311;28;20029;-67
2022/04/20 06:05:42;;;;;;;8.23;4.63;;;;;;;8.37;62.40;101556.91;5236971;28;20025;-67
2022/04/20 06:08:14;;;;;;;7.60;4.55;;;;;;;8.43;62.55;101553.88;5236819;28;20009;-68
2022/04/20 06:10:48;;;;;;;5.72;4.20;;;;;;;8.55;61.69;101551.41;5231838;28;20033;-67
2022/04/20 06:13:20;;;;;;;7.25;4.60;;;;;;;8.58;62.65;101554.66;5236900;28;20088;-67
2022/04/20 06:15:52;;;;;;;5.97;4.40;;;;;;;8.69;61.69;101556.59;5235551;28;20117;-66
2022/04/20 06:18:23;;;;;;;6.33;4.30;;;;;;;8.82;60.36;101560.06;5236023;28;20104;-67
2022/04/20 06:20:55;;;;;;;6.03;4.50;;;;;;;8.85;60.89;101559.03;5235924;28;20018;-67
2022/04/20 06:23:26;;;;;;;7.40;4.65;;;;;;;8.98;59.69;101562.50;5236542;28;20072;-68
2022/04/20 06:25:57;;;;;;;7.90;4.43;;;;;;;9.06;59.59;101562.00;5234283;28;20029;-66
2022/04/20 06:28:29;;;;;;;7.07;4.15;;;;;;;9.19;59.53;101561.06;5229376;28;20033;-68
2022/04/20 06:31:00;;;;;;;5.07;3.97;;;;;;;9.35;59.34;101562.63;5234416;28;20052;-68
2022/04/20 06:33:32;;;;;;;8.77;4.53;;;;;;;9.54;59.72;101563.03;5235042;28;20029;-67
2022/04/20 06:36:04;;;;;;;8.15;4.30;;;;;;;9.66;57.74;101564.81;5237873;28;20035;-68
2022/04/20 06:38:35;;;;;;;8.70;4.80;;;;;;;9.87;57.06;101569.50;5237525;28;20028;-69
2022/04/20 06:41:06;;;;;;;6.07;4.05;;;;;;;10.00;57.00;101572.94;5236946;28;20032;-67
2022/04/20 06:43:38;;;;;;;11.02;4.70;;;;;;;10.20;57.19;101567.09;5232603;28;20763;-67
2022/04/20 06:46:09;;;;;;;6.50;4.15;;;;;;;10.32;56.70;101568.03;5243050;28;20080;-67
2022/04/20 06:48:40;;;;;;;6.78;4.20;;;;;;;10.43;54.97;101572.50;5239881;28;20051;-67
2022/04/20 06:51:12;;;;;;;7.22;4.22;;;;;;;10.63;53.56;101574.50;5242880;28;20026;-68
2022/04/20 06:59:24;;;;;;;8.57;4.20;;;;;;;11.04;53.33;101567.97;5236942;28;20041;-67
2022/04/20 07:01:57;;;;;;;6.97;4.05;;;;;;;11.32;52.54;101564.06;5237216;28;20090;-67
2022/04/20 07:04:29;;;;;;;14.23;4.63;;;;;;;11.42;52.08;101565.06;5236921;28;20021;-67
2022/04/20 07:07:00;;;;;;;10.38;4.10;;;;;;;11.52;51.21;101572.22;5236653;28;20032;-68
2022/04/20 07:09:32;;;;;;;5.78;4.13;;;;;;;11.63;52.10;101570.44;5231116;28;20379;-68
2022/04/20 07:12:03;;;;;;;5.53;3.70;;;;;;;11.79;51.21;101569.25;5238328;28;20506;-68
2022/04/20 07:14:35;;;;;;;7.18;4.35;;;;;;;11.83;50.11;101565.44;5238668;28;20379;-67
2022/04/20 07:17:07;;;;;;;5.03;3.53;;;;;;;11.94;48.58;101568.06;5234569;28;20032;-67
2022/04/20 07:19:39;;;;;;;8.63;4.40;;;;;;;12.12;50.75;101571.88;5243201;28;20017;-67
2022/04/20 07:22:10;;;;;;;11.27;4.32;;;;;;;12.32;48.63;101565.00;5236747;28;20036;-69
2022/04/20 07:24:41;;;;;;;5.40;3.67;;;;;;;12.41;48.89;101558.16;5232447;28;20086;-68
2022/04/20 07:27:13;;;;;;;6.93;3.75;;;;;;;12.54;47.68;101563.25;5242737;28;20021;-69
2022/04/20 07:29:44;;;;;;;7.18;3.90;;;;;;;12.61;46.40;101567.91;5236370;28;20030;-69
2022/04/20 07:32:15;;;;;;;5.80;4.20;;;;;;;12.73;47.39;101565.19;5230861;28;20041;-68
2022/04/20 07:34:47;;;;;;;6.07;4.07;;;;;;;12.81;46.47;101565.44;5229601;28;20501;-67
2022/04/20 07:37:18;;;;;;;7.38;3.78;;;;;;;13.01;46.83;101566.41;5233361;28;20052;-68
2022/04/20 07:39:49;;;;;;;4.78;3.72;;;;;;;13.09;44.77;101569.22;5243512;28;20037;-68
2022/04/20 07:42:21;;;;;;;6.60;4.00;;;;;;;13.22;45.51;101567.22;5239537;28;20025;-67
2022/04/20 07:44:56;;;;;;;8.07;3.90;;;;;;;13.23;43.59;101566.28;5236938;28;20410;-68
2022/04/20 07:47:28;;;;;;;8.85;4.15;;;;;;;13.34;43.67;101565.41;5235944;28;20094;-67
2022/04/20 07:53:05;;;;;;;7.15;3.58;;;;;;;13.81;43.66;101574.47;5215617;28;20083;-67
2022/04/20 07:55:37;;;;;;;6.28;3.65;;;;;;;13.92;43.25;101572.69;5228265;28;20033;-69
2022/04/20 07:58:08;;;;;;;6.55;3.63;;;;;;;14.18;43.87;101578.31;5236715;28;20033;-66
2022/04/20 08:00:40;;;;;;;11.85;4.20;;;;;;;14.20;42.43;101571.91;5237212;28;20059;-67
2022/04/20 08:03:19;;;;;;;9.98;3.83;;;;;;;14.32;42.63;101577.94;5237007;28;20033;-67
2022/04/20 08:05:55;;;;;;;6.13;3.58;;;;;;;14.49;42.73;101571.13;5239177;28;20477;-69
2022/04/20 08:08:27;;;;;;;6.68;3.70;;;;;;;14.48;39.87;101567.66;5242201;28;20133;-69
2022/04/20 08:10:58;;;;;;;4.95;3.33;;;;;;;14.68;40.85;101576.44;5239443;28;20025;-67
2022/04/20 08:16:20;;;;;;;7.18;3.28;;;;;;;14.88;39.15;101582.53;5234914;28;20041;-66
2022/04/20 08:18:52;;;;;;;8.57;3.40;;;;;;;15.05;39.11;101578.38;5236489;28;20099;-67
2022/04/20 08:21:23;;;;;;;7.20;3.72;;;;;;;15.25;39.87;101577.34;5237586;28;20045;-69
2022/04/20 08:23:54;;;;;;;8.18;3.40;;;;;;;15.29;38.99;101581.38;5236069;28;20029;-67
2022/04/20 08:26:25;;;;;;;5.82;3.33;;;;;;;15.28;37.93;101581.53;5235919;28;20102;-68
2022/04/20 08:29:00;;;;;;;4.80;3.63;;;;;;;15.51;39.57;101577.56;5234899;28;20022;-67
2022/04/20 08:31:31;;;;;;;6.35;3.75;;;;;;;15.39;37.13;101576.06;5233491;28;20120;-66
2022/04/20 08:34:03;;;;;;;4.57;3.40;;;;;;;15.48;37.67;101584.94;5240737;28;20033;-66
2022/04/20 08:36:34;;;;;;;5.63;3.70;;;;;;;15.70;38.69;101586.41;5234286;28;20024;-67
2022/04/20 08:39:05;;;;;;;4.95;3.10;;;;;;;15.84;37.45;101579.84;5235542;28;20060;-66
2022/04/20 08:41:36;;;;;;;5.40;4.00;;;;;;;15.81;37.03;101584.41;5233685;28;20064;-66
2022/04/20 08:44:13;;;;;;;8.45;3.92;;;;;;;15.90;39.04;101587.16;5231433;28;20036;-66
2022/04/20 08:46:45;;;;;;;5.60;3.78;;;;;;;16.04;39.79;101576.94;5236287;28;20075;-67
2022/04/20 08:49:17;;;;;;;7.37;4.20;;;;;;;16.07;38.22;101578.44;5241066;28;20032;-67
2022/04/20 08:54:41;;;;;;;10.77;3.80;;;;;;;16.26;35.98;101578.34;5236483;28;20037;-66
2022/04/20 08:57:15;;;;;;;5.90;3.60;;;;;;;16.48;36.76;101576.25;5237029;28;20029;-66
2022/04/20 08:59:48;;;;;;;8.68;3.75;;;;;;;16.49;35.86;101569.97;5234753;28;20139;-68
2022/04/20 09:02:21;;;;;;;6.53;4.03;;;;;;;16.44;34.95;101557.19;5232987;28;20029;-67
2022/04/20 09:04:52;;;;;;;7.63;3.97;;;;;;;16.56;34.95;101570.19;5240457;28;20029;-67
2022/04/20 09:07:25;;;;;;;6.13;3.60;;;;;;;16.56;34.53;101568.38;5239523;28;20618;-68
2022/04/20 09:09:56;;;;;;;8.10;3.72;;;;;;;16.71;35.24;101572.16;5239973;28;20025;-66
2022/04/20 09:12:28;;;;;;;5.13;3.85;;;;;;;16.75;33.72;101568.25;5238398;28;20569;-67
2022/04/20 09:15:01;;;;;;;7.13;3.60;;;;;;;16.59;33.08;101568.03;5235173;28;20501;-67
2022/04/20 09:17:40;;;;;;;8.60;3.87;;;;;;;16.73;34.66;101567.56;5234533;28;20033;-68
2022/04/20 09:20:18;;;;;;;7.18;3.90;;;;;;;16.78;34.67;101572.38;5238362;28;20198;-69
2022/04/20 09:23:10;;;;;;;8.00;3.95;;;;;;;16.95;34.50;101568.88;5238644;28;20026;-68
2022/04/20 09:25:47;;;;;;;6.97;3.90;;;;;;;17.14;34.76;101573.16;5229150;28;20035;-68
2022/04/20 09:28:20;;;;;;;5.53;3.40;;;;;;;17.22;33.41;101556.50;5231981;28;20057;-68
2022/04/20 09:30:54;;;;;;;6.03;3.47;;;;;;;17.21;32.99;101557.50;5237557;28;20035;-68
2022/04/20 09:33:45;;;;;;;8.30;3.65;;;;;;;17.48;33.75;101549.34;5235430;28;20029;-69
2022/04/20 09:36:41;;;;;;;5.97;3.90;;;;;;;17.40;32.68;101544.03;5236656;28;20041;-69
2022/04/20 09:39:12;;;;;;;6.03;4.00;;;;;;;17.25;34.18;101549.06;5239643;28;20017;-70
2022/04/20 09:42:02;;;;;;;9.15;3.35;;;;;;;17.62;34.08;101540.00;5236779;28;20387;-69
2022/04/20 09:44:35;;;;;;;6.22;3.50;;;;;;;17.44;32.73;101532.13;5232741;28;20044;-68
2022/04/20 09:50:00;;;;;;;5.05;3.20;;;;;;;17.72;32.83;101539.84;5238318;28;20029;-69
2022/04/20 09:52:35;;;;;;;6.75;2.80;;;;;;;17.81;31.58;101540.75;5236211;28;20060;-68
2022/04/20 09:55:10;;;;;;;5.25;3.22;;;;;;;17.65;31.51;101546.78;5233961;28;20032;-68
2022/04/20 09:57:42;;;;;;;4.57;2.90;;;;;;;17.69;32.46;101543.66;5236983;28;20033;-68
2022/04/20 10:00:15;;;;;;;3.38;2.50;;;;;;;17.61;31.34;101538.31;5224091;28;20191;-68
2022/04/20 10:02:51;;;;;;;3.20;2.25;;;;;;;17.74;31.60;101536.06;5210809;28;20080;-69
2022/04/20 10:05:23;;;;;;;4.45;2.97;;;;;;;17.87;32.55;101540.94;5216106;28;20483;-68
2022/04/20 10:07:58;;;;;;;7.22;2.88;;;;;;;17.75;31.74;101529.78;5218009;28;20028;-70
2022/04/20 10:10:30;;;;;;;4.43;2.90;;;;;;;17.66;30.79;101525.44;5230241;28;20033;-68
2022/04/20 10:13:03;;;;;;;4.45;2.50;;;;;;;17.86;31.75;101527.84;5221750;28;20048;-68
2022/04/20 10:18:28;;;;;;;4.65;2.42;;;;;;;18.08;31.04;101511.34;5221864;28;20032;-69
2022/04/20 10:21:01;;;;;;;4.57;2.92;;;;;;;18.05;31.13;101521.44;5228251;28;20082;-68
2022/04/20 10:23:34;;;;;;;5.45;2.88;;;;;;;18.09;32.27;101518.28;5224522;28;20030;-68
2022/04/20 10:26:07;;;;;;;5.72;2.92;;;;;;;18.02;30.70;101519.94;5210917;28;20820;-68
2022/04/20 10:29:26;;;;;;;3.60;2.33;;;;;;;18.06;31.43;101509.81;5234173;28;20401;-68
2022/04/20 10:32:05;;;;;;;5.20;2.30;;;;;;;17.87;32.70;101506.47;5225286;28;20025;-68
2022/04/20 10:34:38;;;;;;;3.25;2.33;;;;;;;17.77;30.81;101510.25;5223825;28;20048;-68
2022/04/20 10:37:19;;;;;;;3.92;2.47;;;;;;;18.02;30.90;101516.44;5230892;28;20033;-69
2022/04/20 10:39:51;;;;;;;8.80;3.03;;;;;;;17.97;31.37;101511.63;5217765;28;20034;-68
2022/04/20 10:42:23;;;;;;;4.53;2.20;;;;;;;18.12;30.95;101511.84;5210843;28;20031;-69
2022/04/20 10:44:55;;;;;;;4.30;2.22;;;;;;;18.14;31.38;101513.31;5229793;28;20025;-68
2022/04/20 10:47:32;;;;;;;3.57;2.10;;;;;;;18.25;31.79;101501.56;5227960;28;20095;-68
2022/04/20 10:50:23;;;;;;;4.20;2.30;;;;;;;18.53;30.75;101499.44;5224694;28;20291;-68
2022/04/20 10:53:03;;;;;;;4.32;2.25;;;;;;;18.39;31.00;101505.41;5218175;28;20044;-68
2022/04/20 16:15:38;;;;;;;7.15;3.83;;;;;;;18.48;36.51;101266.41;5331186;27;21009;-69
2022/04/20 16:18:09;;;;;;;4.35;3.42;;;;;;;18.52;35.64;101264.25;5332017;28;20130;-69
2022/04/20 16:20:41;;;;;;;6.78;3.83;;;;;;;18.67;35.34;101267.84;5327472;27;20114;-68
2022/04/20 16:23:13;;;;;;;4.75;3.88;;;;;;;18.58;35.33;101271.53;5315909;28;20521;-68
2022/04/20 16:25:44;;;;;;;5.60;3.87;;;;;;;18.56;36.31;101247.03;5334737;27;20511;-68
2022/04/20 16:28:17;;;;;;;4.07;3.30;;;;;;;18.57;35.92;101264.59;5329503;27;20284;-68
2022/04/20 16:30:48;;;;;;;4.57;3.67;;;;;;;18.37;35.57;101265.97;5327790;27;20496;-68
2022/04/20 16:33:22;;;;;;;4.22;3.30;;;;;;;18.37;35.59;101263.31;5333642;28;20019;-68
2022/04/20 16:35:59;;;;;;;7.63;3.22;;;;;;;18.31;35.61;101264.03;5338811;27;20617;-67
2022/04/20 16:38:30;;;;;;;5.57;3.30;;;;;;;18.21;35.42;101264.19;5325566;28;20546;-69
2022/04/20 16:41:02;;;;;;;6.60;3.53;;;;;;;18.29;36.13;101255.38;5333645;28;20031;-67
2022/04/20 16:43:37;;;;;;;3.72;3.15;;;;;;;18.35;35.78;101260.03;5331523;27;20031;-68
2022/04/20 16:46:08;;;;;;;4.00;2.88;;;;;;;18.31;35.63;101261.38;5329462;28;20386;-69
2022/04/20 16:48:40;;;;;;;8.10;3.22;;;;;;;18.40;36.31;101247.06;5333756;27;20031;-67
2022/04/20 16:51:12;;;;;;;10.00;3.67;;;;;;;18.40;36.32;101249.72;5327289;28;20515;-67
2022/04/20 16:53:44;;;;;;;4.75;2.97;;;;;;;18.29;35.42;101258.03;5330596;27;20066;-69
2022/04/20 16:56:15;;;;;;;4.00;2.97;;;;;;;18.31;35.81;101264.03;5332183;27;20084;-68
2022/04/20 16:58:52;;;;;;;5.43;3.08;;;;;;;18.29;35.85;101258.88;5331230;27;20027;-67
2022/04/20 17:01:25;;;;;;;4.75;3.42;;;;;;;18.14;35.76;101264.03;5333771;28;20027;-68
2022/04/20 17:03:56;;;;;;;5.00;3.25;;;;;;;18.16;35.76;101263.88;5329946;27;20504;-68
2022/04/20 17:06:27;;;;;;;4.07;3.15;;;;;;;18.18;36.07;101268.03;5333761;28;20023;-68
2022/04/20 17:08:59;;;;;;;5.55;3.22;;;;;;;18.18;36.10;101265.38;5332379;27;20054;-68
2022/04/20 17:11:30;;;;;;;6.82;3.00;;;;;;;18.09;35.80;101261.06;5332967;27;20078;-68
2022/04/20 17:14:02;;;;;;;3.97;2.67;;;;;;;18.06;36.56;101261.41;5323054;27;20054;-69
2022/04/20 17:16:33;;;;;;;5.32;2.95;;;;;;;18.02;36.82;101254.78;5317955;28;20027;-69
2022/04/20 17:19:05;;;;;;;3.92;2.80;;;;;;;18.03;36.59;101253.78;5315368;28;20061;-68
2022/04/20 17:27:16;;;;;;;4.25;2.97;;;;;;;17.72;36.96;101248.34;5314217;28;20051;-68
2022/04/20 17:29:48;;;;;;;6.60;2.72;;;;;;;17.69;36.84;101251.31;5308912;28;20020;-67
2022/04/20 17:32:19;;;;;;;5.80;3.08;;;;;;;17.68;37.43;101245.19;5317528;28;20493;-69
2022/04/20 17:36:37;;;;;;;4.00;2.53;;;;;;;17.73;37.13;101245.53;5316774;28;20093;-69
2022/04/20 17:37:42;;;;;;;5.03;2.80;;;;;;;17.63;37.53;101247.53;5312656;28;20047;-71
2022/04/20 17:40:14;;;;;;;4.60;2.58;;;;;;;17.47;37.37;101245.72;5313855;28;20549;-69
2022/04/20 17:42:51;;;;;;;6.65;3.30;;;;;;;17.54;37.56;101247.69;5317245;27;20148;-69
2022/04/20 17:45:22;;;;;;;5.60;3.10;;;;;;;17.41;37.31;101245.53;5313422;28;20367;-69
2022/04/20 17:47:54;;;;;;;5.25;2.60;;;;;;;17.33;38.03;101250.84;5312519;28;20027;-68
2022/04/20 17:50:26;;;;;;;3.75;2.60;;;;;;;17.35;37.98;101243.53;5316110;28;20027;-68